Iglesia, Argentina
Current Conditions -  °F | °C
As of 5:00 AM on Thursday 23 Oct 2014 (Local Time) from SCSE Reporting Station
Moderate Fog Moderate Fog  
Wind Chill: 54°   Ceiling: 400
Heat Index: 54°   Visibility: 0.5mi
Dew Point: 54°   Wind: 3mph
Humidity: 100%   Direction: NA
Pressure: 29.94"   Gusts: NA
Location:  30.17°S, 69.21°W
Report Text: SCSE 230800Z VRB03KT 0800 FG OVC004 12/12 Q1014
Loading
Personal Weather Stations






























Interactive Weather Map
Tropical Storm Tracking
New forecast layout! Learn more

10-Day Weather Forecast

Advertisements
Track Severe Weather on mobile